createdAt,value
2018-12-05T00:01:01.237Z,3.50
2018-12-05T00:03:38.960Z,4.10
2018-12-05T00:06:22.203Z,3.90
2018-12-05T00:08:59.725Z,8.00
2018-12-05T00:11:32.235Z,4.80
2018-12-05T00:14:06.208Z,5.23
2018-12-05T00:16:40.653Z,5.00
2018-12-05T00:19:13.564Z,6.10
2018-12-05T00:21:49.896Z,4.50
2018-12-05T00:24:36.202Z,6.13
2018-12-05T00:27:16.917Z,4.50
2018-12-05T00:29:53.748Z,4.43
2018-12-05T00:32:37.434Z,4.77
2018-12-05T00:35:21.888Z,4.77
2018-12-05T00:37:53.783Z,4.20
2018-12-05T00:40:29.912Z,4.80
2018-12-05T00:43:04.843Z,4.00
2018-12-05T00:45:36.079Z,6.43
2018-12-05T00:48:09.500Z,5.10
2018-12-05T00:50:39.724Z,6.07
2018-12-05T00:53:10.894Z,4.60
2018-12-05T00:55:42.303Z,4.60
2018-12-05T00:58:17.223Z,5.87
2018-12-05T01:00:52.730Z,5.63
2018-12-05T01:03:25.982Z,4.63
2018-12-05T01:06:02.293Z,5.93
2018-12-05T01:08:36.813Z,5.80
2018-12-05T01:11:10.472Z,6.67
2018-12-05T01:13:44.037Z,5.40
2018-12-05T01:18:57.814Z,7.47
2018-12-05T01:21:34.567Z,6.47
2018-12-05T01:24:13.136Z,6.57
2018-12-05T01:29:31.039Z,6.30
2018-12-05T01:32:02.188Z,7.07
2018-12-05T01:34:43.711Z,5.97
2018-12-05T01:37:15.481Z,6.30
2018-12-05T01:40:02.457Z,6.00
2018-12-05T01:42:37.471Z,5.93
2018-12-05T01:45:12.248Z,9.33
2018-12-05T01:47:48.889Z,7.10
2018-12-05T01:50:19.863Z,8.17
2018-12-05T01:52:51.325Z,8.27
2018-12-05T01:55:23.568Z,7.50
2018-12-05T01:57:59.475Z,6.77
2018-12-05T02:00:41.943Z,6.73
2018-12-05T02:06:17.123Z,6.47
2018-12-05T02:11:38.905Z,7.70
2018-12-05T02:14:19.459Z,7.47
2018-12-05T02:16:59.350Z,7.13
2018-12-05T02:19:37.607Z,5.87
2018-12-05T02:22:13.530Z,6.20
2018-12-05T02:24:44.073Z,8.63
2018-12-05T02:27:17.683Z,7.90
2018-12-05T02:29:59.168Z,7.53
2018-12-05T02:32:38.443Z,9.93
2018-12-05T02:35:13.536Z,6.87
2018-12-05T02:37:55.868Z,6.70
2018-12-05T02:43:14.801Z,8.13
2018-12-05T02:45:55.953Z,8.10
2018-12-05T02:51:13.850Z,8.70
2018-12-05T02:54:00.882Z,17.27
2018-12-05T02:56:44.809Z,8.13
2018-12-05T02:59:29.235Z,7.83
2018-12-05T03:02:06.045Z,8.47
2018-12-05T03:04:45.737Z,9.47
2018-12-05T03:07:19.978Z,10.30
2018-12-05T03:10:00.025Z,9.03
2018-12-05T03:15:12.857Z,10.07
2018-12-05T03:17:46.017Z,9.00
2018-12-05T03:20:23.552Z,8.83
2018-12-05T03:22:55.673Z,11.23
2018-12-05T03:25:32.162Z,10.70
2018-12-05T03:28:10.004Z,10.27
2018-12-05T03:30:50.324Z,12.43
2018-12-05T03:36:01.626Z,10.33
2018-12-05T03:38:34.015Z,10.30
2018-12-05T03:41:10.654Z,11.13
2018-12-05T03:43:48.662Z,10.63
2018-12-05T03:46:23.768Z,10.77
2018-12-05T03:48:59.042Z,9.63
2018-12-05T03:51:42.579Z,9.80
2018-12-05T03:59:50.424Z,11.47
2018-12-05T04:02:23.861Z,12.67
2018-12-05T04:05:01.067Z,10.97
2018-12-05T04:07:32.773Z,10.73
2018-12-05T04:10:04.946Z,11.13
2018-12-05T04:12:40.770Z,11.87
2018-12-05T04:23:18.654Z,13.33
2018-12-05T04:28:49.472Z,11.97
2018-12-05T04:31:29.085Z,12.20
2018-12-05T04:36:49.711Z,12.73
2018-12-05T04:42:06.347Z,16.57
2018-12-05T04:44:42.176Z,13.93
2018-12-05T04:47:22.598Z,13.20
2018-12-05T04:52:50.945Z,14.37
2018-12-05T04:55:24.909Z,14.03
2018-12-05T04:58:09.671Z,13.30
2018-12-05T05:03:32.262Z,13.47
2018-12-05T05:06:04.307Z,12.60
2018-12-05T05:08:34.286Z,12.17
2018-12-05T05:11:11.400Z,13.63
2018-12-05T05:13:44.290Z,12.17
2018-12-05T05:16:19.515Z,11.63
2018-12-05T05:18:50.969Z,13.33
2018-12-05T05:21:33.217Z,10.67
2018-12-05T05:24:06.498Z,12.53
2018-12-05T05:26:39.239Z,12.20
2018-12-05T05:29:16.558Z,13.63
2018-12-05T05:31:53.641Z,14.67
2018-12-05T05:34:30.138Z,15.77
2018-12-05T05:37:06.937Z,16.77
2018-12-05T05:39:39.482Z,14.83
2018-12-05T05:42:11.365Z,13.13
2018-12-05T05:44:42.937Z,18.20
2018-12-05T05:47:14.784Z,14.60
2018-12-05T05:49:54.661Z,14.70
2018-12-05T06:01:00.725Z,16.10
2018-12-05T06:03:35.808Z,28.30
2018-12-05T06:06:08.054Z,18.20
2018-12-05T06:11:22.172Z,17.97
2018-12-05T06:13:52.771Z,14.70
2018-12-05T06:19:01.329Z,16.50
2018-12-05T06:21:41.567Z,16.83
2018-12-05T06:24:23.970Z,16.83
2018-12-05T06:47:00.926Z,21.83
2018-12-05T06:49:39.714Z,20.73
2018-12-05T06:57:54.245Z,20.97
2018-12-05T07:34:40.196Z,60.37
2018-12-05T07:37:16.329Z,70.83
2018-12-05T07:40:05.182Z,63.43
2018-12-05T07:45:30.704Z,44.40
2018-12-05T07:48:15.105Z,36.63
2018-12-05T07:50:57.156Z,33.57
2018-12-05T08:07:11.223Z,24.10
2018-12-05T08:12:35.922Z,22.73
2018-12-05T08:15:15.939Z,23.90
2018-12-05T08:20:32.857Z,20.43
2018-12-05T08:23:14.001Z,21.53
2018-12-05T08:25:48.743Z,20.53
2018-12-05T08:31:15.680Z,17.10
2018-12-05T08:33:52.730Z,21.97
2018-12-05T08:36:25.581Z,16.93
2018-12-05T08:39:01.818Z,22.43
2018-12-05T08:41:40.792Z,19.00
2018-12-05T08:44:17.038Z,21.80
2018-12-05T08:49:42.944Z,21.67
2018-12-05T08:52:20.997Z,18.10
2018-12-05T08:57:35.885Z,18.70
2018-12-05T09:00:08.045Z,21.93
2018-12-05T09:02:43.638Z,14.80
2018-12-05T09:05:20.977Z,21.17
2018-12-05T09:07:54.623Z,27.63
2018-12-05T09:10:29.753Z,19.20
2018-12-05T09:15:54.001Z,21.50
2018-12-05T09:18:31.105Z,21.43
2018-12-05T09:26:47.744Z,18.37
2018-12-05T09:29:23.611Z,20.07
2018-12-05T09:31:56.297Z,20.63
2018-12-05T09:34:30.119Z,20.67
2018-12-05T09:37:01.756Z,21.80
2018-12-05T09:39:45.155Z,19.73
2018-12-05T09:42:23.572Z,15.03
2018-12-05T09:45:09.255Z,21.33
2018-12-05T09:47:45.657Z,17.13
2018-12-05T09:50:27.711Z,19.80
2018-12-05T09:53:00.939Z,16.23
2018-12-05T09:58:14.672Z,17.27
2018-12-05T10:00:50.389Z,18.83
2018-12-05T10:06:01.857Z,14.87
2018-12-05T10:11:24.422Z,19.00
2018-12-05T10:14:04.201Z,17.60
2018-12-05T10:24:56.167Z,20.67
2018-12-05T10:27:34.341Z,11.63
2018-12-05T10:30:10.225Z,15.03
2018-12-05T10:32:50.172Z,15.60
2018-12-05T10:38:09.362Z,14.17
2018-12-05T11:21:53.455Z,17.87
2018-12-05T11:32:55.961Z,17.77
2018-12-05T11:38:26.690Z,20.10
2018-12-05T11:52:20.067Z,17.33
2018-12-05T11:55:03.141Z,15.60
2018-12-05T12:17:20.252Z,15.90
2018-12-05T12:19:54.214Z,19.53
2018-12-05T12:22:33.247Z,20.97
2018-12-05T12:25:08.738Z,18.37
2018-12-05T12:27:46.538Z,17.73
2018-12-05T12:30:23.859Z,13.27
2018-12-05T12:32:53.989Z,15.67
2018-12-05T12:35:24.374Z,15.37
2018-12-05T12:37:54.378Z,13.07
2018-12-05T12:40:24.897Z,11.63
2018-12-05T12:42:56.375Z,10.23
2018-12-05T12:45:26.865Z,14.47
2018-12-05T12:48:04.360Z,14.77
2018-12-05T12:50:42.854Z,10.80
2018-12-05T12:53:15.360Z,7.80
2018-12-05T12:55:47.372Z,10.93
2018-12-05T12:58:19.684Z,8.63
2018-12-05T13:00:51.467Z,7.90
2018-12-05T13:04:07.380Z,5.77
2018-12-05T13:06:37.529Z,5.63
2018-12-05T13:09:10.452Z,5.37
2018-12-05T13:11:40.818Z,5.43
2018-12-05T13:14:14.240Z,3.93
2018-12-05T13:16:45.514Z,3.43
2018-12-05T13:19:16.175Z,2.23
2018-12-05T13:21:47.474Z,2.67
2018-12-05T13:24:17.511Z,1.30
2018-12-05T13:26:47.343Z,1.20
2018-12-05T13:29:17.123Z,2.03
2018-12-05T13:31:49.071Z,2.00
2018-12-05T13:34:22.230Z,3.27
2018-12-05T13:36:53.653Z,2.40
2018-12-05T13:39:23.648Z,2.00
2018-12-05T13:41:54.000Z,1.77
2018-12-05T13:44:25.468Z,1.20
2018-12-05T13:46:56.593Z,1.13
2018-12-05T13:49:28.726Z,1.43
2018-12-05T13:51:57.262Z,1.80
2018-12-05T13:54:27.016Z,1.00
2018-12-05T13:56:57.603Z,2.13
2018-12-05T13:59:27.144Z,1.03
2018-12-05T14:01:57.140Z,2.00
2018-12-05T14:04:27.124Z,1.67
2018-12-05T14:06:57.134Z,1.83
2018-12-05T14:09:28.121Z,1.13
2018-12-05T14:12:01.518Z,1.03
2018-12-05T14:14:31.216Z,1.03
2018-12-05T14:17:02.373Z,1.30
2018-12-05T14:19:31.792Z,1.50
2018-12-05T14:22:02.729Z,1.10
2018-12-05T14:24:36.679Z,1.20
2018-12-05T14:27:08.142Z,0.90
2018-12-05T14:29:41.187Z,0.97
2018-12-05T14:32:11.585Z,0.90
2018-12-05T14:34:48.153Z,1.33
2018-12-05T14:37:20.232Z,0.90
2018-12-05T14:39:52.377Z,1.17
2018-12-05T14:42:22.386Z,1.00
2018-12-05T14:44:54.817Z,1.17
2018-12-05T14:47:25.640Z,1.20
2018-12-05T14:49:57.554Z,1.00
2018-12-05T14:59:15.828Z,1.20
2018-12-05T15:01:58.499Z,1.37
2018-12-05T15:04:29.330Z,1.67
2018-12-05T15:07:00.121Z,1.00
2018-12-05T15:09:35.221Z,1.93
2018-12-05T15:30:55.321Z,2.73
2018-12-05T15:33:31.734Z,1.37
2018-12-05T15:36:10.927Z,1.53
2018-12-05T15:38:43.751Z,1.57
2018-12-05T15:41:24.167Z,1.60
2018-12-05T15:52:08.211Z,2.20
2018-12-05T15:57:30.480Z,2.67
2018-12-05T16:00:10.692Z,2.77
2018-12-05T16:02:44.740Z,2.90
2018-12-05T16:05:18.936Z,1.90
2018-12-05T16:11:06.583Z,2.40
2018-12-05T16:16:43.395Z,2.30
2018-12-05T16:22:15.492Z,2.40
2018-12-05T16:24:51.516Z,2.40
2018-12-05T16:27:22.825Z,2.00
2018-12-05T16:30:08.226Z,2.00
2018-12-05T16:40:50.846Z,2.70
2018-12-05T16:46:03.028Z,3.53
2018-12-05T17:07:18.865Z,3.10
2018-12-05T18:03:51.456Z,19.83
2018-12-05T18:09:29.367Z,23.63
2018-12-05T18:12:00.770Z,24.17
2018-12-05T18:18:35.698Z,19.83
2018-12-05T18:23:56.879Z,29.90
2018-12-05T18:32:05.975Z,23.00
2018-12-05T18:34:39.927Z,37.27
2018-12-05T18:37:25.850Z,23.93
2018-12-05T18:45:31.466Z,22.80
2018-12-05T18:50:52.295Z,22.93
2018-12-05T18:53:24.973Z,28.80
2018-12-05T18:56:06.860Z,33.03
2018-12-05T19:01:38.831Z,31.40
2018-12-05T19:04:27.685Z,36.43
2018-12-05T19:15:40.008Z,40.47
2018-12-05T19:18:16.623Z,23.83
2018-12-05T19:43:22.635Z,28.27
2018-12-05T19:46:05.039Z,33.63
2018-12-05T19:51:46.741Z,23.73
2018-12-05T20:07:09.910Z,34.20
2018-12-05T20:09:49.462Z,34.87
2018-12-05T20:12:33.196Z,40.67
2018-12-05T20:17:59.811Z,32.33
2018-12-05T20:59:45.750Z,26.00
2018-12-05T22:43:35.799Z,31.63
2018-12-05T22:46:27.240Z,25.37
2018-12-05T22:57:40.389Z,21.07
2018-12-05T23:22:22.739Z,22.47
2018-12-05T23:27:48.424Z,27.43
2018-12-05T23:33:08.478Z,23.53
2018-12-05T23:38:46.237Z,25.80
2018-12-05T23:41:33.414Z,24.83
2018-12-05T23:49:59.025Z,13.00
